Time;durP1;ratioP1;P1;durP2;ratioP2;P2;SDS_P1;SDS_P2;PMS_P1;PMS_P2;Temp;Humidity;BMP_temperature;BMP_pressure;BME280_temperature;BME280_humidity;BME280_pressure;Samples;Min_cycle;Max_cycle;Signal;HPM_P1;HPM_P2
2023/08/13 00:02:05;;;;;;;3.35;2.67;;;16.70;99.90;;;;;;5068268;28;20622;-70
2023/08/13 00:04:31;;;;;;;3.50;2.72;;;16.70;99.90;;;;;;5062788;28;20107;-69
2023/08/13 00:06:56;;;;;;;3.58;2.40;;;16.60;99.90;;;;;;5050039;28;20193;-69
2023/08/13 00:09:22;;;;;;;3.30;2.75;;;16.50;99.90;;;;;;5048812;28;20043;-69
2023/08/13 00:11:48;;;;;;;3.45;3.15;;;16.40;99.90;;;;;;5049772;28;20039;-69
2023/08/13 00:14:14;;;;;;;3.92;2.97;;;16.40;99.90;;;;;;5059203;28;20035;-69
2023/08/13 00:16:39;;;;;;;3.42;2.63;;;16.40;99.90;;;;;;5069666;28;20088;-69
2023/08/13 00:19:06;;;;;;;3.50;3.20;;;16.40;99.90;;;;;;5070200;28;20071;-69
2023/08/13 00:21:31;;;;;;;3.58;2.83;;;16.40;99.90;;;;;;5057985;28;20055;-69
2023/08/13 00:23:57;;;;;;;3.20;2.92;;;16.40;99.90;;;;;;5069080;28;20123;-69
2023/08/13 00:26:23;;;;;;;4.05;2.70;;;16.30;99.90;;;;;;5070310;28;20032;-69
2023/08/13 00:28:48;;;;;;;3.55;2.65;;;16.30;99.90;;;;;;5066534;28;20032;-69
2023/08/13 00:31:14;;;;;;;5.32;2.72;;;16.20;99.90;;;;;;5071094;28;20052;-69
2023/08/13 00:33:39;;;;;;;5.38;2.88;;;16.20;99.90;;;;;;5073733;28;20020;-69
2023/08/13 00:36:06;;;;;;;4.03;2.95;;;16.20;99.90;;;;;;5068528;28;20033;-69
2023/08/13 00:38:31;;;;;;;3.05;2.65;;;16.10;99.90;;;;;;5066152;28;20029;-69
2023/08/13 00:40:57;;;;;;;3.72;2.45;;;16.00;99.90;;;;;;5069742;28;20459;-69
2023/08/13 00:43:22;;;;;;;6.38;3.08;;;16.00;99.90;;;;;;5070461;28;20073;-69
2023/08/13 00:45:49;;;;;;;3.15;2.33;;;16.00;99.90;;;;;;5066070;28;20040;-69
2023/08/13 00:48:14;;;;;;;3.00;2.78;;;15.90;99.90;;;;;;5070069;28;20060;-69
2023/08/13 00:50:43;;;;;;;5.53;2.70;;;15.90;99.90;;;;;;5064301;28;20048;-69
2023/08/13 00:53:10;;;;;;;3.47;2.15;;;15.80;99.90;;;;;;5066629;28;20038;-70
2023/08/13 00:55:36;;;;;;;3.35;2.50;;;15.90;99.90;;;;;;5066792;28;20020;-70
2023/08/13 00:58:02;;;;;;;2.80;1.77;;;15.90;99.90;;;;;;5068812;28;20020;-69
2023/08/13 01:00:30;;;;;;;2.30;2.10;;;15.90;99.90;;;;;;5067696;28;20088;-69
2023/08/13 01:02:56;;;;;;;4.82;1.77;;;15.90;99.90;;;;;;5066558;28;20108;-69
2023/08/13 01:05:32;;;;;;;1.90;1.80;;;15.90;99.90;;;;;;5067523;28;20101;-69
2023/08/13 01:08:23;;;;;;;6.65;1.80;;;15.90;99.90;;;;;;5066779;28;20040;-69
2023/08/13 01:11:01;;;;;;;2.97;1.92;;;15.70;99.90;;;;;;5069867;28;20055;-69
2023/08/13 01:13:33;;;;;;;2.17;1.98;;;15.60;99.90;;;;;;5069200;28;20488;-69
2023/08/13 01:15:59;;;;;;;3.53;2.00;;;15.50;99.90;;;;;;5056765;28;20130;-69
2023/08/13 01:18:26;;;;;;;2.72;2.15;;;15.40;99.90;;;;;;5068902;28;20489;-69
2023/08/13 01:20:52;;;;;;;2.72;2.22;;;15.40;99.90;;;;;;5064157;28;20030;-69
2023/08/13 01:23:18;;;;;;;4.35;1.75;;;15.30;99.90;;;;;;5068731;28;20488;-69
2023/08/13 01:25:52;;;;;;;2.15;1.98;;;15.30;99.90;;;;;;5068702;28;20032;-69
2023/08/13 01:28:49;;;;;;;2.38;1.80;;;15.40;99.90;;;;;;5071632;28;20499;-69
2023/08/13 01:31:22;;;;;;;2.92;2.03;;;15.50;99.90;;;;;;5059852;28;20028;-69
2023/08/13 01:33:49;;;;;;;3.90;1.85;;;15.50;99.90;;;;;;5071084;28;20028;-70
2023/08/13 01:36:16;;;;;;;3.58;1.92;;;15.50;99.90;;;;;;5068025;28;20481;-69
2023/08/13 01:38:44;;;;;;;4.78;2.38;;;15.40;99.90;;;;;;5049286;28;20024;-69
2023/08/13 01:41:09;;;;;;;2.50;1.83;;;15.30;99.90;;;;;;5066526;28;20264;-69
2023/08/13 01:43:35;;;;;;;3.63;2.20;;;15.30;99.90;;;;;;5065871;28;20405;-69
2023/08/13 01:46:04;;;;;;;2.42;2.22;;;15.20;99.90;;;;;;5065934;28;20040;-69
2023/08/13 01:48:30;;;;;;;2.08;1.90;;;15.20;99.90;;;;;;5069380;28;20036;-69
2023/08/13 01:50:55;;;;;;;2.42;1.52;;;15.20;99.90;;;;;;5063946;28;20110;-69
2023/08/13 01:53:21;;;;;;;2.38;2.03;;;15.30;99.90;;;;;;5066368;28;20062;-69
2023/08/13 01:55:47;;;;;;;2.63;2.20;;;15.30;99.90;;;;;;5068916;28;20024;-69
2023/08/13 01:58:12;;;;;;;3.15;2.15;;;15.30;99.90;;;;;;5069125;28;20032;-69
2023/08/13 02:00:38;;;;;;;2.63;2.33;;;15.30;99.90;;;;;;5049392;28;20820;-70
2023/08/13 02:03:04;;;;;;;2.75;2.35;;;15.20;99.90;;;;;;5067650;28;20479;-69
2023/08/13 02:05:30;;;;;;;2.60;2.05;;;15.20;99.90;;;;;;5063733;28;20025;-69
2023/08/13 02:07:56;;;;;;;3.25;1.92;;;15.20;99.90;;;;;;5069270;28;20114;-69
2023/08/13 02:10:22;;;;;;;1.90;1.80;;;15.30;99.90;;;;;;5051466;28;20032;-69
2023/08/13 02:12:47;;;;;;;2.20;1.70;;;15.20;99.90;;;;;;5048612;28;20455;-69
2023/08/13 02:15:13;;;;;;;2.22;1.60;;;15.20;99.90;;;;;;5066341;28;20032;-69
2023/08/13 02:17:38;;;;;;;1.92;1.70;;;15.10;99.90;;;;;;5070602;28;20028;-69
2023/08/13 02:20:05;;;;;;;1.98;1.70;;;15.00;99.90;;;;;;5071713;28;20031;-69
2023/08/13 02:22:31;;;;;;;1.85;1.70;;;14.90;99.90;;;;;;5069031;28;20817;-69
2023/08/13 02:24:56;;;;;;;1.98;1.55;;;14.80;99.90;;;;;;5069322;28;20103;-69
2023/08/13 02:27:22;;;;;;;6.10;2.30;;;14.80;99.90;;;;;;5066566;28;20039;-69
2023/08/13 02:29:48;;;;;;;2.00;1.50;;;14.90;99.90;;;;;;5067773;28;20042;-69
2023/08/13 02:32:13;;;;;;;2.58;1.67;;;14.90;99.90;;;;;;5069622;28;20492;-68
2023/08/13 02:34:44;;;;;;;2.60;1.70;;;14.90;99.90;;;;;;5064890;28;20032;-69
2023/08/13 02:37:10;;;;;;;2.40;1.70;;;14.90;99.90;;;;;;5067568;28;20069;-70
2023/08/13 02:39:35;;;;;;;2.70;1.73;;;14.90;99.90;;;;;;5067870;28;20378;-69
2023/08/13 02:42:01;;;;;;;2.40;1.70;;;14.80;99.90;;;;;;5066739;28;20099;-69
2023/08/13 02:44:27;;;;;;;2.35;2.15;;;14.80;99.90;;;;;;5067391;28;20032;-69
2023/08/13 02:46:53;;;;;;;3.72;1.38;;;14.80;99.90;;;;;;5067450;28;20036;-69
2023/08/13 02:49:18;;;;;;;6.65;1.60;;;14.70;99.90;;;;;;5063446;28;20041;-69
2023/08/13 02:51:44;;;;;;;4.47;1.33;;;14.70;99.90;;;;;;5062905;28;20035;-69
2023/08/13 02:54:10;;;;;;;4.13;2.30;;;14.60;99.90;;;;;;5071512;28;20028;-69
2023/08/13 02:56:36;;;;;;;3.97;1.90;;;14.60;99.90;;;;;;5060593;28;20103;-69
2023/08/13 02:59:01;;;;;;;3.08;2.00;;;14.60;99.90;;;;;;5064635;28;20468;-69
2023/08/13 03:01:27;;;;;;;3.22;1.63;;;14.60;99.90;;;;;;5067988;28;20032;-69
2023/08/13 03:03:53;;;;;;;2.20;1.40;;;14.60;99.90;;;;;;5064264;28;20537;-69
2023/08/13 03:06:24;;;;;;;2.47;1.50;;;14.70;99.90;;;;;;5063361;28;20781;-69
2023/08/13 03:08:50;;;;;;;3.13;1.40;;;14.60;99.90;;;;;;5071338;28;20036;-69
2023/08/13 03:11:16;;;;;;;2.88;1.80;;;14.50;99.90;;;;;;5070952;28;20035;-69
2023/08/13 03:13:42;;;;;;;6.22;2.40;;;14.40;99.90;;;;;;5053042;28;20048;-69
2023/08/13 03:16:07;;;;;;;2.17;1.98;;;14.40;99.90;;;;;;5066722;28;20028;-69
2023/08/13 03:18:33;;;;;;;2.58;1.50;;;14.40;99.90;;;;;;5070225;28;20521;-74
2023/08/13 03:20:59;;;;;;;2.13;1.70;;;14.40;99.90;;;;;;5067242;28;20404;-75
2023/08/13 03:23:24;;;;;;;2.22;1.83;;;14.40;99.90;;;;;;5067031;28;20032;-75
2023/08/13 03:25:50;;;;;;;2.00;1.88;;;14.50;99.90;;;;;;5071003;28;20560;-75
2023/08/13 03:28:15;;;;;;;2.63;1.85;;;14.50;99.90;;;;;;5075484;28;20071;-75
2023/08/13 03:30:41;;;;;;;3.00;1.50;;;14.50;99.90;;;;;;5070730;28;20028;-75
2023/08/13 03:33:07;;;;;;;2.65;1.55;;;14.60;99.90;;;;;;5072280;28;20059;-75
2023/08/13 03:35:37;;;;;;;1.60;1.50;;;14.60;99.90;;;;;;5056046;28;20033;-75
2023/08/13 03:38:03;;;;;;;1.98;1.67;;;14.40;99.90;;;;;;5071186;28;20042;-75
2023/08/13 03:40:28;;;;;;;2.65;1.40;;;14.40;99.90;;;;;;5070489;28;20033;-75
2023/08/13 03:42:54;;;;;;;1.63;1.52;;;14.30;99.90;;;;;;5070844;28;20024;-75
2023/08/13 03:45:20;;;;;;;1.77;1.63;;;14.40;99.90;;;;;;5067254;28;20109;-74
2023/08/13 03:47:45;;;;;;;1.58;1.48;;;14.30;99.90;;;;;;5063437;28;20104;-74
2023/08/13 03:50:11;;;;;;;5.15;1.90;;;14.30;99.90;;;;;;5067860;28;20614;-75
2023/08/13 03:52:36;;;;;;;3.15;2.30;;;14.20;99.90;;;;;;5065013;28;20025;-75
2023/08/13 03:55:03;;;;;;;1.75;1.65;;;14.20;99.90;;;;;;5072062;28;20740;-74
2023/08/13 03:57:28;;;;;;;1.92;1.70;;;14.20;99.90;;;;;;5071203;28;21006;-75
2023/08/13 03:59:54;;;;;;;2.97;1.77;;;14.30;99.90;;;;;;5065676;28;20028;-74
2023/08/13 04:02:19;;;;;;;1.92;1.80;;;14.30;99.90;;;;;;5066449;28;21380;-75
2023/08/13 04:04:45;;;;;;;2.08;1.73;;;14.30;99.90;;;;;;5068616;28;20104;-73
2023/08/13 04:07:11;;;;;;;3.33;1.80;;;14.30;99.90;;;;;;5064029;28;20040;-74
2023/08/13 04:09:36;;;;;;;1.52;1.42;;;14.30;99.90;;;;;;5067540;28;20048;-75
2023/08/13 04:12:02;;;;;;;4.45;1.77;;;14.30;99.90;;;;;;5066233;28;20020;-75
2023/08/13 04:14:28;;;;;;;4.45;1.63;;;14.30;99.90;;;;;;5064946;28;21174;-74
2023/08/13 04:16:54;;;;;;;6.88;1.90;;;14.40;99.90;;;;;;5064148;28;20555;-75
2023/08/13 04:19:19;;;;;;;4.47;2.05;;;14.50;99.90;;;;;;5065396;28;20033;-75
2023/08/13 04:21:45;;;;;;;2.67;1.50;;;14.50;99.90;;;;;;5062166;28;20065;-74
2023/08/13 04:24:10;;;;;;;6.72;1.98;;;14.50;99.90;;;;;;5068583;28;20610;-75
2023/08/13 04:26:36;;;;;;;2.20;1.90;;;14.60;99.90;;;;;;5067481;28;20111;-75
2023/08/13 04:29:02;;;;;;;2.25;1.65;;;14.70;99.90;;;;;;5068472;28;20081;-75
2023/08/13 04:31:27;;;;;;;3.65;1.80;;;14.80;99.90;;;;;;5068184;28;20040;-75
2023/08/13 04:33:53;;;;;;;2.42;1.75;;;14.80;99.90;;;;;;5068863;28;20115;-74
2023/08/13 04:36:18;;;;;;;2.28;2.08;;;14.80;99.90;;;;;;5065616;28;20426;-74
2023/08/13 04:38:44;;;;;;;2.25;2.05;;;14.80;99.90;;;;;;5065835;28;20115;-74
2023/08/13 04:41:10;;;;;;;2.88;1.83;;;14.90;99.90;;;;;;5068381;28;20074;-75
2023/08/13 04:43:35;;;;;;;3.85;2.10;;;15.00;99.90;;;;;;5067997;28;20034;-74
2023/08/13 04:46:01;;;;;;;3.85;1.98;;;15.00;99.90;;;;;;5065684;28;20031;-74
2023/08/13 04:48:46;;;;;;;4.63;1.80;;;15.10;99.90;;;;;;5069958;28;20164;-75
2023/08/13 04:51:15;;;;;;;2.15;1.70;;;15.30;99.90;;;;;;5067542;28;20032;-75
2023/08/13 04:53:41;;;;;;;5.25;2.10;;;15.40;99.90;;;;;;5067434;28;20082;-75
2023/08/13 04:56:07;;;;;;;4.18;1.83;;;15.50;99.90;;;;;;5070183;28;20031;-75
2023/08/13 04:58:33;;;;;;;4.88;1.80;;;15.60;99.90;;;;;;5067063;28;20551;-75
2023/08/13 05:00:59;;;;;;;5.22;2.08;;;15.70;99.90;;;;;;5071825;28;20058;-75
2023/08/13 05:03:25;;;;;;;5.25;1.95;;;15.90;99.90;;;;;;5069922;28;20091;-75
2023/08/13 05:05:51;;;;;;;1.83;1.73;;;16.00;99.90;;;;;;5067197;28;20607;-75
2023/08/13 05:08:17;;;;;;;2.03;1.90;;;16.10;99.90;;;;;;5072084;28;20040;-74
2023/08/13 05:10:43;;;;;;;4.65;2.30;;;16.20;99.90;;;;;;5069201;28;20031;-74
2023/08/13 05:13:08;;;;;;;2.38;2.00;;;16.40;99.90;;;;;;5067241;28;20481;-75
2023/08/13 05:15:34;;;;;;;3.05;2.55;;;16.50;99.90;;;;;;5066328;28;20496;-75
2023/08/13 05:17:59;;;;;;;4.30;2.28;;;16.60;99.90;;;;;;5068115;28;20081;-75
2023/08/13 05:20:25;;;;;;;2.20;2.05;;;16.70;99.90;;;;;;5064836;28;20078;-75
2023/08/13 05:22:51;;;;;;;5.07;2.38;;;16.90;99.90;;;;;;5052065;28;20394;-74
2023/08/13 05:25:17;;;;;;;2.80;2.17;;;17.00;99.90;;;;;;5067057;28;20036;-75
2023/08/13 05:27:42;;;;;;;2.20;2.00;;;17.10;99.90;;;;;;5063315;28;20582;-74
2023/08/13 05:30:08;;;;;;;2.17;1.88;;;17.20;99.90;;;;;;5072449;28;20052;-75
2023/08/13 05:32:34;;;;;;;3.55;2.33;;;17.40;99.90;;;;;;5071620;28;20024;-75
2023/08/13 05:34:59;;;;;;;5.88;2.30;;;17.60;99.90;;;;;;5068500;28;20031;-74
2023/08/13 05:37:25;;;;;;;2.85;2.03;;;17.80;99.90;;;;;;5068873;28;20024;-75
2023/08/13 05:39:51;;;;;;;2.22;2.08;;;17.90;99.90;;;;;;5071547;28;20024;-76
2023/08/13 05:42:17;;;;;;;3.35;2.05;;;18.00;99.90;;;;;;5055600;28;20067;-77
2023/08/13 05:44:42;;;;;;;2.42;2.22;;;18.20;99.90;;;;;;5068984;28;20032;-75
2023/08/13 05:47:08;;;;;;;2.72;2.08;;;18.40;99.90;;;;;;5046211;28;20032;-76
2023/08/13 05:49:34;;;;;;;2.47;2.22;;;18.50;99.90;;;;;;5064373;28;20051;-76
2023/08/13 05:51:59;;;;;;;4.60;2.35;;;18.70;99.90;;;;;;5066908;28;20059;-75
2023/08/13 05:54:25;;;;;;;2.72;2.40;;;18.80;99.90;;;;;;5068650;28;20055;-77
2023/08/13 05:56:53;;;;;;;2.70;2.25;;;19.00;99.90;;;;;;5072413;28;20147;-77
2023/08/13 05:59:19;;;;;;;3.53;2.45;;;19.10;99.90;;;;;;5066772;28;20039;-77
2023/08/13 06:01:45;;;;;;;2.78;2.45;;;19.30;99.90;;;;;;5066212;28;20412;-74
2023/08/13 06:04:11;;;;;;;2.50;2.30;;;19.40;99.90;;;;;;5070785;28;20099;-69
2023/08/13 06:06:36;;;;;;;2.63;2.42;;;19.50;99.90;;;;;;5062674;28;20043;-68
2023/08/13 06:09:02;;;;;;;3.13;2.78;;;19.60;99.90;;;;;;5054073;28;20036;-68
2023/08/13 06:11:28;;;;;;;3.70;2.47;;;19.70;99.90;;;;;;5068697;28;20064;-69
2023/08/13 06:13:53;;;;;;;2.78;2.25;;;19.70;99.90;;;;;;5070984;28;20036;-69
2023/08/13 06:16:19;;;;;;;5.68;2.50;;;19.80;99.90;;;;;;5057729;28;20465;-68
2023/08/13 06:18:44;;;;;;;6.28;2.30;;;20.10;99.90;;;;;;5067349;28;20039;-69
2023/08/13 06:21:10;;;;;;;2.65;2.15;;;20.20;99.90;;;;;;5047705;28;20085;-69
2023/08/13 06:23:36;;;;;;;2.45;2.10;;;20.30;99.90;;;;;;5063337;28;20314;-69
2023/08/13 06:26:01;;;;;;;3.33;2.55;;;20.50;99.90;;;;;;5063524;28;20122;-69
2023/08/13 06:28:27;;;;;;;3.20;2.45;;;20.60;99.90;;;;;;5065422;28;20036;-69
2023/08/13 06:30:53;;;;;;;2.00;1.90;;;20.70;99.90;;;;;;5067651;28;20492;-69
2023/08/13 06:33:19;;;;;;;1.98;1.88;;;20.90;99.90;;;;;;5065918;28;20089;-69
2023/08/13 06:35:48;;;;;;;3.88;1.90;;;21.00;99.90;;;;;;5066836;28;20040;-68
2023/08/13 06:38:14;;;;;;;3.03;1.90;;;21.20;99.90;;;;;;5056692;28;20108;-68
2023/08/13 06:40:41;;;;;;;13.13;2.83;;;21.20;99.90;;;;;;5064663;28;20187;-69
2023/08/13 06:43:07;;;;;;;7.90;2.35;;;21.20;99.90;;;;;;5070186;28;20028;-68
2023/08/13 06:45:32;;;;;;;3.95;1.98;;;21.20;99.90;;;;;;5060038;28;20044;-68
2023/08/13 06:47:58;;;;;;;3.70;2.60;;;21.30;99.90;;;;;;5075345;28;20032;-68
2023/08/13 06:50:27;;;;;;;2.75;2.45;;;21.50;99.90;;;;;;5071122;28;20034;-68
2023/08/13 06:52:53;;;;;;;3.53;2.13;;;21.70;99.90;;;;;;5073596;28;20575;-69
2023/08/13 06:55:19;;;;;;;15.57;2.95;;;21.80;99.90;;;;;;5071939;28;20039;-69
2023/08/13 06:57:46;;;;;;;4.43;2.40;;;21.90;99.90;;;;;;5070323;28;20544;-71
2023/08/13 07:00:13;;;;;;;2.03;1.88;;;22.10;99.90;;;;;;5069835;28;20382;-72
2023/08/13 07:02:39;;;;;;;10.00;1.95;;;22.30;99.90;;;;;;5071425;28;20341;-69
2023/08/13 07:05:05;;;;;;;4.70;2.10;;;22.40;99.90;;;;;;5063314;28;20035;-71
2023/08/13 07:07:33;;;;;;;3.05;1.98;;;22.60;99.90;;;;;;5069746;28;20024;-68
2023/08/13 07:09:59;;;;;;;5.80;2.05;;;22.80;99.90;;;;;;5070543;28;20037;-69
2023/08/13 07:12:25;;;;;;;2.65;1.90;;;22.90;99.90;;;;;;5057962;28;20032;-69
2023/08/13 07:14:50;;;;;;;7.70;1.63;;;22.90;99.90;;;;;;5064595;28;20028;-68
2023/08/13 07:17:16;;;;;;;8.75;1.80;;;22.90;99.90;;;;;;5066318;28;24404;-67
2023/08/13 07:19:41;;;;;;;4.93;1.73;;;22.90;99.90;;;;;;5070524;28;20036;-67
2023/08/13 07:22:07;;;;;;;3.42;1.80;;;22.90;99.90;;;;;;5062475;28;20074;-67
2023/08/13 07:24:34;;;;;;;2.25;1.80;;;22.80;99.90;;;;;;5069512;28;20028;-70
2023/08/13 07:27:00;;;;;;;2.88;1.98;;;22.90;99.90;;;;;;5068336;28;20027;-69
2023/08/13 07:29:25;;;;;;;4.15;1.92;;;23.00;99.90;;;;;;5068584;28;20044;-69
2023/08/13 07:31:51;;;;;;;7.32;1.83;;;23.10;99.90;;;;;;5070794;28;20090;-69
2023/08/13 07:34:17;;;;;;;10.50;2.70;;;23.30;99.90;;;;;;5070695;28;20111;-72
2023/08/13 07:36:43;;;;;;;4.25;2.03;;;23.50;99.90;;;;;;5070590;28;20030;-69
2023/08/13 07:39:09;;;;;;;3.15;1.52;;;23.70;99.90;;;;;;5070867;28;20043;-70
2023/08/13 07:41:36;;;;;;;2.15;1.95;;;23.80;99.90;;;;;;5072150;28;20044;-70
2023/08/13 07:44:02;;;;;;;35.15;4.43;;;23.80;99.90;;;;;;5066930;28;20020;-68
2023/08/13 07:46:27;;;;;;;8.70;1.90;;;23.90;99.90;;;;;;5072195;28;20028;-76
2023/08/13 07:48:53;;;;;;;5.10;2.00;;;23.90;99.90;;;;;;5072632;28;20028;-75
2023/08/13 07:51:20;;;;;;;1.67;1.58;;;24.00;99.90;;;;;;5070544;28;20036;-73
2023/08/13 07:53:45;;;;;;;2.60;1.40;;;24.10;99.90;;;;;;5070272;28;20115;-74
2023/08/13 07:56:11;;;;;;;2.40;1.73;;;24.20;99.90;;;;;;5073817;28;20498;-84
2023/08/13 07:58:38;;;;;;;2.58;2.20;;;24.30;99.90;;;;;;5071895;28;20074;-84
2023/08/13 08:01:03;;;;;;;1.73;1.42;;;24.30;99.90;;;;;;5074413;28;20481;-84
2023/08/13 08:03:29;;;;;;;4.00;1.70;;;24.30;99.90;;;;;;5071332;28;20039;-84
2023/08/13 08:05:55;;;;;;;1.63;1.50;;;24.40;99.90;;;;;;5069355;28;20115;-81
2023/08/13 08:08:20;;;;;;;2.15;1.55;;;24.50;99.90;;;;;;5062063;28;21629;-81
2023/08/13 08:10:46;;;;;;;5.07;1.38;;;24.60;99.90;;;;;;5070113;28;20093;-82
2023/08/13 08:13:12;;;;;;;3.03;1.73;;;24.70;99.90;;;;;;5063603;28;20037;-78
2023/08/13 08:15:37;;;;;;;3.53;1.27;;;24.70;99.90;;;;;;5062598;28;20051;-81
2023/08/13 08:18:03;;;;;;;1.70;1.55;;;24.80;99.90;;;;;;5066559;28;20032;-81
2023/08/13 08:20:29;;;;;;;2.38;1.30;;;24.80;99.90;;;;;;5068366;28;20036;-78
2023/08/13 08:22:54;;;;;;;3.53;1.60;;;24.70;99.90;;;;;;5064301;28;20024;-76
2023/08/13 08:25:20;;;;;;;2.78;1.45;;;24.80;99.90;;;;;;5065529;28;20031;-74
2023/08/13 08:27:46;;;;;;;1.75;1.42;;;24.80;99.90;;;;;;5070825;28;20077;-78
2023/08/13 08:30:12;;;;;;;2.67;1.63;;;24.80;99.90;;;;;;5070703;28;20031;-75
2023/08/13 08:32:38;;;;;;;2.53;1.75;;;24.90;99.90;;;;;;5066027;28;20076;-75
2023/08/13 08:35:04;;;;;;;2.63;1.60;;;24.90;99.90;;;;;;5067376;28;20024;-78
2023/08/13 08:37:32;;;;;;;1.65;1.40;;;25.00;99.90;;;;;;5069121;28;20062;-79
2023/08/13 08:39:58;;;;;;;1.38;1.27;;;25.10;99.90;;;;;;5072400;28;20440;-78
2023/08/13 08:42:25;;;;;;;2.10;1.30;;;25.10;99.90;;;;;;5072596;28;20028;-79
2023/08/13 08:44:51;;;;;;;1.42;1.33;;;25.10;99.90;;;;;;5072726;28;20028;-79
2023/08/13 08:47:18;;;;;;;7.05;1.60;;;25.00;99.90;;;;;;5059885;28;20168;-75
2023/08/13 08:49:46;;;;;;;2.78;1.27;;;25.00;99.90;;;;;;5067054;28;20469;-80
2023/08/13 08:52:14;;;;;;;1.38;1.27;;;25.10;99.90;;;;;;5067936;28;20442;-79
2023/08/13 08:54:40;;;;;;;2.40;1.30;;;25.10;99.90;;;;;;5067159;28;20028;-76
2023/08/13 08:57:06;;;;;;;1.40;1.20;;;25.10;99.90;;;;;;5069310;28;20035;-76
2023/08/13 08:59:32;;;;;;;1.65;1.30;;;25.10;99.90;;;;;;5066138;28;20148;-74
2023/08/13 09:01:58;;;;;;;1.20;1.10;;;25.10;99.90;;;;;;5068408;28;20029;-77
2023/08/13 09:04:23;;;;;;;2.08;1.42;;;25.20;99.90;;;;;;5067811;28;20038;-75
2023/08/13 09:06:57;;;;;;;3.75;2.10;;;25.20;99.90;;;;;;5049314;28;20032;-75
2023/08/13 09:09:24;;;;;;;1.98;1.48;;;25.30;99.90;;;;;;5065646;28;20048;-77
2023/08/13 09:11:50;;;;;;;1.23;1.13;;;25.20;99.90;;;;;;5067526;28;20507;-74
2023/08/13 09:14:17;;;;;;;1.58;1.48;;;25.30;99.90;;;;;;5065340;28;20484;-76
2023/08/13 09:16:51;;;;;;;2.15;1.45;;;25.40;99.90;;;;;;5065544;28;20020;-77
2023/08/13 09:19:18;;;;;;;1.80;1.70;;;25.40;99.90;;;;;;5061923;28;21053;-78
2023/08/13 09:21:52;;;;;;;1.50;1.40;;;25.50;99.90;;;;;;5052191;28;20036;-79
2023/08/13 09:24:19;;;;;;;4.65;1.38;;;25.50;99.90;;;;;;5062928;28;20473;-75
2023/08/13 09:26:45;;;;;;;3.78;1.40;;;25.60;99.90;;;;;;5071327;28;20108;-74
2023/08/13 09:29:11;;;;;;;2.08;1.40;;;25.70;99.90;;;;;;5065432;28;20047;-72
2023/08/13 09:31:37;;;;;;;1.77;1.55;;;25.70;99.90;;;;;;5063695;28;20091;-73
2023/08/13 09:34:04;;;;;;;3.92;1.15;;;25.80;99.90;;;;;;5064877;28;20111;-76
2023/08/13 09:36:31;;;;;;;2.03;1.48;;;25.80;99.90;;;;;;5058062;28;20768;-76
2023/08/13 09:38:57;;;;;;;1.33;1.23;;;25.90;99.90;;;;;;5064533;28;20119;-78
2023/08/13 09:41:24;;;;;;;1.50;1.40;;;25.80;99.90;;;;;;5065486;28;20112;-75
2023/08/13 09:43:53;;;;;;;2.00;1.40;;;25.80;99.90;;;;;;5068913;28;20028;-76
2023/08/13 09:46:26;;;;;;;3.45;1.63;;;25.90;99.90;;;;;;5051980;28;20555;-77
2023/08/13 09:48:55;;;;;;;2.10;1.70;;;25.80;99.90;;;;;;5064420;28;20597;-76
2023/08/13 09:51:25;;;;;;;1.73;1.50;;;25.70;99.90;;;;;;5059152;28;20352;-76
2023/08/13 09:53:58;;;;;;;1.77;1.40;;;25.80;99.90;;;;;;5052191;28;20145;-76
2023/08/13 09:56:26;;;;;;;5.47;3.67;;;25.90;99.90;;;;;;5055600;28;20066;-74
2023/08/13 09:58:52;;;;;;;3.45;2.03;;;26.00;99.90;;;;;;5066527;28;20048;-73
2023/08/13 10:01:18;;;;;;;1.77;1.20;;;26.00;99.90;;;;;;5063936;28;20111;-72
2023/08/13 10:03:44;;;;;;;1.52;1.23;;;26.10;99.90;;;;;;5062539;28;20043;-72
2023/08/13 10:06:10;;;;;;;2.55;1.40;;;26.20;99.90;;;;;;5061996;28;20737;-72
2023/08/13 10:08:36;;;;;;;1.55;1.30;;;26.20;99.90;;;;;;5066468;28;20041;-72
2023/08/13 10:11:02;;;;;;;1.73;1.58;;;26.20;99.90;;;;;;5061562;28;20025;-72
2023/08/13 10:13:28;;;;;;;1.50;1.33;;;26.30;99.90;;;;;;5060820;28;20028;-73
2023/08/13 10:15:54;;;;;;;1.60;1.50;;;26.30;99.90;;;;;;5063166;28;20040;-75
2023/08/13 10:18:22;;;;;;;2.67;1.52;;;26.40;99.90;;;;;;5069000;28;20244;-76
2023/08/13 10:20:48;;;;;;;1.38;1.27;;;26.40;99.90;;;;;;5063978;28;20075;-76
2023/08/13 10:23:16;;;;;;;1.98;1.33;;;26.40;99.90;;;;;;5067402;28;20024;-76
2023/08/13 10:25:44;;;;;;;6.18;1.40;;;26.60;99.90;;;;;;5069044;28;20119;-77
2023/08/13 10:28:26;;;;;;;5.68;2.20;;;26.60;99.90;;;;;;5067441;28;20504;-78
2023/08/13 10:31:24;;;;;;;3.40;2.05;;;26.60;99.90;;;;;;5068032;28;20040;-77
2023/08/13 10:34:11;;;;;;;6.30;1.33;;;26.70;99.90;;;;;;5057222;28;20473;-76
2023/08/13 10:36:44;;;;;;;4.20;1.92;;;26.60;99.90;;;;;;5061814;28;20039;-75
2023/08/13 10:39:30;;;;;;;2.63;1.85;;;26.70;99.90;;;;;;5068096;28;20033;-76
2023/08/13 10:41:56;;;;;;;2.17;1.40;;;26.50;99.90;;;;;;5070935;28;20096;-74
2023/08/13 10:44:38;;;;;;;1.58;1.33;;;26.60;99.90;;;;;;5063405;28;20040;-73
2023/08/13 10:47:04;;;;;;;4.72;1.40;;;26.60;99.90;;;;;;5066378;28;20063;-73
2023/08/13 10:49:30;;;;;;;1.10;1.00;;;26.60;99.90;;;;;;5054973;28;20071;-77
2023/08/13 10:52:01;;;;;;;1.58;1.02;;;26.80;99.90;;;;;;5062560;28;20103;-70
2023/08/13 10:54:26;;;;;;;0.98;0.98;;;26.80;99.90;;;;;;5067359;28;20034;-74
2023/08/13 10:56:55;;;;;;;1.40;1.30;;;26.90;99.90;;;;;;5064196;28;20028;-76
2023/08/13 10:59:39;;;;;;;1.45;1.23;;;27.00;99.90;;;;;;5060742;28;20484;-77
2023/08/13 11:02:20;;;;;;;3.78;1.35;;;27.10;99.90;;;;;;5066011;28;20051;-76
2023/08/13 11:04:46;;;;;;;2.53;1.40;;;27.10;99.90;;;;;;5064746;28;20101;-76
2023/08/13 11:07:13;;;;;;;1.88;1.23;;;27.00;99.90;;;;;;5062094;28;20028;-76
2023/08/13 11:09:42;;;;;;;1.92;1.73;;;27.00;99.90;;;;;;5064955;28;20048;-77
2023/08/13 11:12:09;;;;;;;3.53;1.38;;;27.00;99.90;;;;;;5063106;28;20020;-79
2023/08/13 11:14:35;;;;;;;2.33;1.48;;;27.00;99.90;;;;;;5069880;28;20055;-75
2023/08/13 11:17:01;;;;;;;1.48;1.38;;;27.10;99.90;;;;;;5071895;28;20036;-76
2023/08/13 11:19:27;;;;;;;1.50;1.40;;;27.20;99.90;;;;;;5072414;28;20036;-76
2023/08/13 11:21:54;;;;;;;1.55;1.45;;;27.30;99.90;;;;;;5068906;28;20615;-75
2023/08/13 11:24:21;;;;;;;1.23;1.13;;;27.30;99.90;;;;;;5063429;28;20115;-75
2023/08/13 11:26:49;;;;;;;1.50;1.40;;;27.30;99.90;;;;;;5072749;28;20040;-73
2023/08/13 11:29:19;;;;;;;3.85;1.50;;;27.30;99.90;;;;;;5067663;28;21282;-73
2023/08/13 11:31:45;;;;;;;3.15;1.30;;;27.30;99.90;;;;;;5057757;28;20028;-74
2023/08/13 11:34:11;;;;;;;3.65;1.42;;;27.40;99.90;;;;;;5067672;28;20033;-73
2023/08/13 11:36:36;;;;;;;2.03;1.40;;;27.40;99.90;;;;;;5065887;28;20039;-73
2023/08/13 11:39:03;;;;;;;1.83;1.30;;;27.30;99.90;;;;;;5065000;28;20044;-75
2023/08/13 11:41:29;;;;;;;2.63;1.40;;;27.30;99.90;;;;;;5064190;28;20047;-73
2023/08/13 11:43:54;;;;;;;5.13;1.70;;;27.40;99.90;;;;;;5068104;28;20036;-73
2023/08/13 11:46:21;;;;;;;1.25;1.23;;;27.50;99.90;;;;;;5069694;28;20048;-74
2023/08/13 11:48:51;;;;;;;3.15;1.67;;;27.60;99.90;;;;;;5061018;28;20108;-73
2023/08/13 11:51:24;;;;;;;1.80;1.63;;;27.70;99.90;;;;;;5067923;28;20036;-74
2023/08/13 11:53:49;;;;;;;3.17;1.50;;;27.60;99.90;;;;;;5065246;28;20035;-73
2023/08/13 11:56:16;;;;;;;1.42;1.33;;;27.50;99.90;;;;;;5058060;28;20029;-73
2023/08/13 11:58:42;;;;;;;2.75;1.20;;;27.70;99.90;;;;;;5064999;28;20040;-73
2023/08/13 12:01:12;;;;;;;1.42;1.33;;;27.80;99.90;;;;;;5069937;28;20031;-73
2023/08/13 12:03:43;;;;;;;1.60;1.50;;;27.80;99.90;;;;;;5065387;28;20040;-73
2023/08/13 12:06:10;;;;;;;1.42;1.33;;;27.80;99.90;;;;;;5063300;28;20670;-73
2023/08/13 12:08:35;;;;;;;2.78;1.40;;;27.90;99.90;;;;;;5065387;28;20630;-73
2023/08/13 12:11:01;;;;;;;1.83;1.35;;;28.00;99.80;;;;;;5060569;28;20032;-73
2023/08/13 12:13:30;;;;;;;1.50;1.40;;;28.00;99.70;;;;;;5061650;28;20514;-73
2023/08/13 12:15:56;;;;;;;2.17;1.20;;;28.00;99.60;;;;;;5065476;28;20032;-71
2023/08/13 12:18:22;;;;;;;5.68;1.48;;;28.00;99.50;;;;;;5065736;28;20028;-72
2023/08/13 12:20:47;;;;;;;1.90;1.30;;;28.00;99.50;;;;;;5063267;28;20027;-72
2023/08/13 12:23:13;;;;;;;1.30;1.20;;;27.90;99.60;;;;;;5070189;28;20494;-71
2023/08/13 12:25:39;;;;;;;2.58;1.50;;;27.90;99.90;;;;;;5067541;28;20047;-72
2023/08/13 12:28:05;;;;;;;1.90;1.17;;;27.90;99.80;;;;;;5067564;28;20142;-72
2023/08/13 12:30:30;;;;;;;1.52;1.42;;;27.80;99.90;;;;;;5059560;28;20127;-72
2023/08/13 12:32:56;;;;;;;2.25;1.30;;;28.00;99.90;;;;;;5058559;28;20083;-72
2023/08/13 12:35:22;;;;;;;1.50;1.40;;;28.10;99.90;;;;;;5065273;28;20043;-73
2023/08/13 12:37:48;;;;;;;2.25;1.48;;;28.20;99.90;;;;;;5058370;28;20028;-72
2023/08/13 12:40:14;;;;;;;2.63;1.35;;;28.30;99.60;;;;;;5054903;28;20024;-72
2023/08/13 12:42:40;;;;;;;1.75;1.58;;;28.30;99.90;;;;;;5053381;28;20085;-72
2023/08/13 12:45:06;;;;;;;1.50;1.40;;;28.40;98.90;;;;;;5049998;28;20033;-72